createdAt,value
2023-05-12T00:02:07.787Z,0
2023-05-12T00:08:27.749Z,0
2023-05-12T00:14:50.819Z,0
2023-05-12T00:21:10.820Z,0
2023-05-12T00:27:33.787Z,0
2023-05-12T00:33:53.762Z,0
2023-05-12T00:40:16.780Z,0
2023-05-12T00:46:36.737Z,0
2023-05-12T00:52:59.858Z,0
2023-05-12T00:59:19.738Z,0
2023-05-12T01:05:42.872Z,0
2023-05-12T01:12:02.880Z,0
2023-05-12T01:18:25.846Z,0
2023-05-12T01:24:45.769Z,0
2023-05-12T01:31:08.879Z,0
2023-05-12T01:37:28.760Z,0
2023-05-12T01:43:51.777Z,0
2023-05-12T01:50:11.788Z,0
2023-05-12T01:56:34.764Z,0
2023-05-12T02:02:54.826Z,0
2023-05-12T02:09:17.759Z,0
2023-05-12T02:15:37.749Z,0
2023-05-12T02:22:00.733Z,0
2023-05-12T02:28:20.837Z,0
2023-05-12T02:34:43.764Z,0
2023-05-12T02:41:03.759Z,0
2023-05-12T02:47:26.767Z,0
2023-05-12T02:53:46.749Z,0
2023-05-12T03:00:09.767Z,0
2023-05-12T03:06:29.808Z,0
2023-05-12T03:12:52.737Z,0
2023-05-12T03:19:12.823Z,0
2023-05-12T03:25:35.804Z,0
2023-05-12T03:50:00.276Z,0
2023-05-12T03:56:19.729Z,0
2023-05-12T04:02:42.892Z,0
2023-05-12T04:09:02.764Z,0
2023-05-12T04:15:25.781Z,0
2023-05-12T04:21:45.735Z,0
2023-05-12T04:28:10.063Z,5.62
2023-05-12T04:34:28.822Z,11.25
2023-05-12T04:40:51.742Z,11.25
2023-05-12T04:47:11.786Z,11.25
2023-05-12T04:53:34.817Z,11.25
2023-05-12T04:59:54.782Z,16.88
2023-05-12T05:06:17.805Z,16.88
2023-05-12T05:12:37.845Z,11.25
2023-05-12T05:19:03.859Z,11.25
2023-05-12T05:25:20.951Z,11.25
2023-05-12T05:31:43.765Z,11.25
2023-05-12T05:38:03.804Z,11.25
2023-05-12T05:44:26.933Z,22.5
2023-05-12T05:50:46.797Z,33.75
2023-05-12T05:57:09.759Z,39.38
2023-05-12T06:03:29.781Z,45
2023-05-12T06:09:52.814Z,50.62
2023-05-12T06:16:12.775Z,50.62
2023-05-12T06:22:35.819Z,56.25
2023-05-12T06:28:55.736Z,56.25
2023-05-12T06:35:18.988Z,50.62
2023-05-12T06:41:38.997Z,56.25
2023-05-12T06:48:01.819Z,61.88
2023-05-12T06:54:21.777Z,67.5
2023-05-12T07:00:45.004Z,73.12
2023-05-12T07:07:04.769Z,78.75
2023-05-12T07:13:27.810Z,78.75
2023-05-12T07:19:47.782Z,73.12
2023-05-12T07:26:10.815Z,73.12
2023-05-12T07:32:30.813Z,78.75
2023-05-12T07:38:53.899Z,90
2023-05-12T07:45:13.779Z,90
2023-05-12T07:51:36.766Z,95.62
2023-05-12T07:57:56.812Z,90
2023-05-12T08:04:20.016Z,95.62
2023-05-12T08:10:39.795Z,95.62
2023-05-12T08:17:02.943Z,101.25
2023-05-12T08:23:22.750Z,112.5
2023-05-12T08:29:45.810Z,112.5
2023-05-12T08:36:06.197Z,106.88
2023-05-12T08:42:28.755Z,84.38
2023-05-12T08:48:48.823Z,106.88
2023-05-12T08:55:11.823Z,106.88
2023-05-12T09:18:54.001Z,112.5
2023-05-12T09:25:14.761Z,123.75
2023-05-12T09:31:36.809Z,129.38
2023-05-12T09:37:56.783Z,118.12
2023-05-12T09:44:19.754Z,101.25
2023-05-12T09:50:47.098Z,129.38
2023-05-12T09:57:02.847Z,73.12
2023-05-12T10:03:22.779Z,67.5
2023-05-12T10:09:45.753Z,84.38
2023-05-12T10:16:05.852Z,112.5
2023-05-12T10:22:28.803Z,106.88
2023-05-12T10:28:48.753Z,135
2023-05-12T10:35:11.779Z,118.12
2023-05-12T10:41:32.965Z,135
2023-05-12T10:47:57.034Z,118.12
2023-05-12T10:54:16.825Z,112.5
2023-05-12T11:00:40.371Z,123.75
2023-05-12T11:07:01.147Z,135
2023-05-12T11:13:22.890Z,146.25
2023-05-12T11:19:42.770Z,151.88
2023-05-12T11:26:06.036Z,146.25
2023-05-12T11:32:25.860Z,157.5
2023-05-12T11:38:48.807Z,112.5
2023-05-12T11:45:08.733Z,135
2023-05-12T11:51:31.867Z,140.62
2023-05-12T11:57:51.768Z,135
2023-05-12T12:04:14.818Z,118.12
2023-05-12T12:10:34.989Z,112.5
2023-05-12T12:16:57.782Z,106.88
2023-05-12T12:23:17.796Z,123.75
2023-05-12T12:29:40.801Z,118.12
2023-05-12T12:36:00.766Z,118.12
2023-05-12T12:42:23.784Z,118.12
2023-05-12T12:48:43.823Z,129.38
2023-05-12T12:55:06.770Z,135
2023-05-12T13:01:26.852Z,140.62
2023-05-12T13:07:49.804Z,157.5
2023-05-12T13:14:09.745Z,129.38
2023-05-12T13:20:32.776Z,112.5
2023-05-12T13:26:52.908Z,112.5
2023-05-12T13:33:15.836Z,118.12
2023-05-12T13:39:36.796Z,118.12
2023-05-12T13:45:59.895Z,112.5
2023-05-12T13:52:20.582Z,112.5
2023-05-12T13:58:44.753Z,90
2023-05-12T14:05:04.780Z,84.38
2023-05-12T14:11:27.790Z,78.75
2023-05-12T14:17:47.800Z,67.5
2023-05-12T14:24:10.801Z,56.25
2023-05-12T14:30:30.764Z,56.25
2023-05-12T14:36:53.780Z,50.62
2023-05-12T15:01:19.451Z,73.12
2023-05-12T15:07:39.750Z,78.75
2023-05-12T15:14:02.800Z,78.75
2023-05-12T15:20:22.758Z,73.12
2023-05-12T15:26:45.780Z,56.25
2023-05-12T15:33:05.815Z,39.38
2023-05-12T15:39:28.832Z,33.75
2023-05-12T15:45:48.818Z,45
2023-05-12T15:52:11.732Z,50.62
2023-05-12T15:58:31.897Z,45
2023-05-12T16:04:54.753Z,50.62
2023-05-12T16:11:14.757Z,61.88
2023-05-12T16:17:37.899Z,73.12
2023-05-12T16:23:57.768Z,67.5
2023-05-12T16:30:21.023Z,78.75
2023-05-12T16:36:40.891Z,118.12
2023-05-12T16:43:03.765Z,84.38
2023-05-12T16:49:24.168Z,146.25
2023-05-12T16:55:46.858Z,67.5
2023-05-12T17:02:06.870Z,39.38
2023-05-12T17:08:29.873Z,39.38
2023-05-12T17:14:56.071Z,39.38
2023-05-12T17:21:12.854Z,45
2023-05-12T17:27:32.743Z,56.25
2023-05-12T17:33:55.904Z,73.12
2023-05-12T17:40:15.763Z,61.88
2023-05-12T17:46:38.775Z,45
2023-05-12T17:52:59.012Z,22.5
2023-05-12T17:59:21.761Z,16.88
2023-05-12T18:05:41.769Z,11.25
2023-05-12T18:12:04.857Z,11.25
2023-05-12T18:18:24.792Z,5.62
2023-05-12T18:24:47.851Z,5.62
2023-05-12T18:31:15.725Z,0
2023-05-12T18:37:30.751Z,0
2023-05-12T18:43:50.877Z,0
2023-05-12T18:50:13.836Z,0
2023-05-12T18:56:33.746Z,0
2023-05-12T19:02:56.777Z,0
2023-05-12T19:09:16.793Z,0
2023-05-12T19:15:39.953Z,0
2023-05-12T19:21:59.762Z,0
2023-05-12T19:28:22.761Z,0
2023-05-12T19:34:42.797Z,0
2023-05-12T19:41:05.911Z,0
2023-05-12T19:47:25.939Z,0
2023-05-12T19:53:48.825Z,0
2023-05-12T20:00:08.753Z,0
2023-05-12T20:16:44.316Z,0
2023-05-12T20:23:03.739Z,0
2023-05-12T20:29:26.857Z,0
2023-05-12T20:35:47.110Z,0
2023-05-12T20:42:09.789Z,0
2023-05-12T20:48:29.788Z,0
2023-05-12T20:54:52.772Z,0
2023-05-12T21:01:12.776Z,0
2023-05-12T21:07:36.798Z,0
2023-05-12T21:13:56.842Z,0
2023-05-12T21:20:20.101Z,0
2023-05-12T21:26:39.817Z,0
2023-05-12T21:33:02.839Z,0
2023-05-12T21:39:22.738Z,0
2023-05-12T21:45:45.906Z,0
2023-05-12T21:52:05.816Z,0
2023-05-12T21:58:28.754Z,0
2023-05-12T22:21:26.777Z,0
2023-05-12T22:27:46.776Z,0
2023-05-12T22:34:09.803Z,0
2023-05-12T22:40:29.749Z,0
2023-05-12T22:46:52.830Z,0
2023-05-12T22:53:12.751Z,0
2023-05-12T22:59:35.925Z,0
2023-05-12T23:05:55.772Z,0
2023-05-12T23:12:18.788Z,0
2023-05-12T23:18:38.831Z,0
2023-05-12T23:25:01.830Z,0
2023-05-12T23:31:21.825Z,0
2023-05-12T23:37:44.829Z,0
2023-05-12T23:44:04.813Z,0
2023-05-12T23:50:27.815Z,0
2023-05-12T23:56:47.791Z,0
